createdAt,value
2022-12-16T00:01:58.603Z,68.10
2022-12-16T00:04:25.360Z,70.20
2022-12-16T00:06:51.884Z,70.40
2022-12-16T00:09:18.524Z,70.90
2022-12-16T00:11:45.083Z,70.50
2022-12-16T00:14:11.736Z,73.60
2022-12-16T00:16:38.330Z,76.50
2022-12-16T00:19:04.936Z,74.50
2022-12-16T00:21:31.610Z,76.80
2022-12-16T00:23:58.509Z,78.50
2022-12-16T00:26:25.210Z,78.50
2022-12-16T00:28:51.727Z,77.40
2022-12-16T00:31:18.909Z,76.90
2022-12-16T00:33:45.620Z,78.30
2022-12-16T00:36:12.223Z,78.40
2022-12-16T00:38:38.827Z,78.40
2022-12-16T00:41:05.497Z,78.80
2022-12-16T00:43:32.407Z,77.70
2022-12-16T00:45:59.288Z,77.10
2022-12-16T00:48:25.901Z,78.40
2022-12-16T00:50:55.199Z,78.30
2022-12-16T00:53:23.018Z,78.40
2022-12-16T00:55:49.596Z,78.40
2022-12-16T00:58:17.131Z,78.40
2022-12-16T01:00:43.741Z,78.40
2022-12-16T01:03:10.620Z,78.10
2022-12-16T01:05:38.154Z,78.30
2022-12-16T01:08:04.920Z,78.40
2022-12-16T01:10:31.453Z,78.90
2022-12-16T01:12:58.001Z,78.40
2022-12-16T01:15:24.537Z,78.40
2022-12-16T01:17:51.059Z,78.40
2022-12-16T01:20:17.677Z,78.40
2022-12-16T01:22:44.209Z,78.40
2022-12-16T01:25:13.056Z,78.50
2022-12-16T01:27:39.783Z,78.40
2022-12-16T01:30:06.875Z,78.50
2022-12-16T01:32:33.420Z,80.40
2022-12-16T01:35:00.493Z,81.20
2022-12-16T01:37:27.122Z,81.20
2022-12-16T01:39:53.612Z,80.60
2022-12-16T01:42:21.472Z,81.00
2022-12-16T01:44:49.344Z,81.20
2022-12-16T01:47:21.789Z,81.40
2022-12-16T01:50:11.197Z,81.90
2022-12-16T01:52:40.248Z,81.70
2022-12-16T01:55:13.098Z,82.30
2022-12-16T01:57:51.398Z,81.60
2022-12-16T02:00:21.907Z,82.60
2022-12-16T02:02:49.012Z,81.70
2022-12-16T02:05:21.673Z,82.00
2022-12-16T02:08:07.188Z,82.20
2022-12-16T02:10:42.865Z,82.20
2022-12-16T02:13:26.316Z,82.40
2022-12-16T02:16:15.248Z,82.10
2022-12-16T02:18:56.533Z,81.00
2022-12-16T02:21:30.246Z,81.40
2022-12-16T02:24:15.916Z,81.00
2022-12-16T02:26:42.580Z,81.40
2022-12-16T02:29:09.078Z,81.10
2022-12-16T02:31:35.550Z,80.70
2022-12-16T02:34:08.192Z,79.50
2022-12-16T02:36:42.054Z,80.40
2022-12-16T02:39:13.462Z,80.40
2022-12-16T02:41:47.829Z,79.90
2022-12-16T02:44:15.238Z,79.90
2022-12-16T02:46:43.108Z,79.80
2022-12-16T02:49:30.455Z,79.20
2022-12-16T02:51:58.790Z,80.20
2022-12-16T02:54:25.588Z,80.40
2022-12-16T02:57:11.002Z,80.30
2022-12-16T02:59:56.563Z,80.90
2022-12-16T03:02:30.776Z,81.40
2022-12-16T03:05:14.136Z,81.70
2022-12-16T03:07:41.874Z,81.00
2022-12-16T03:10:10.077Z,80.50
2022-12-16T03:12:38.181Z,79.60
2022-12-16T03:15:05.212Z,79.20
2022-12-16T03:17:32.365Z,79.40
2022-12-16T03:20:22.200Z,78.60
2022-12-16T03:22:50.420Z,79.40
2022-12-16T03:25:18.151Z,78.20
2022-12-16T03:27:49.914Z,78.20
2022-12-16T03:30:17.786Z,79.20
2022-12-16T03:32:49.902Z,78.90
2022-12-16T03:35:16.513Z,79.00
2022-12-16T03:37:44.290Z,79.90
2022-12-16T03:40:11.726Z,79.90
2022-12-16T03:42:39.173Z,79.30
2022-12-16T03:45:08.346Z,79.60
2022-12-16T03:47:34.876Z,79.30
2022-12-16T03:50:01.429Z,80.40
2022-12-16T03:52:27.964Z,79.20
2022-12-16T03:54:55.177Z,78.90
2022-12-16T03:57:21.722Z,78.20
2022-12-16T03:59:48.270Z,78.10
2022-12-16T04:02:14.903Z,78.20
2022-12-16T04:04:41.563Z,78.10
2022-12-16T04:07:20.165Z,78.40
2022-12-16T04:09:46.927Z,78.20
2022-12-16T04:12:32.137Z,79.20
2022-12-16T04:15:17.234Z,79.50
2022-12-16T04:18:02.431Z,78.10
2022-12-16T04:20:49.450Z,78.10
2022-12-16T04:23:36.809Z,78.20
2022-12-16T04:26:03.941Z,79.30
2022-12-16T04:28:30.542Z,79.00
2022-12-16T04:30:57.409Z,79.50
2022-12-16T04:33:42.804Z,78.20
2022-12-16T04:36:27.927Z,78.10
2022-12-16T04:39:13.152Z,79.80
2022-12-16T04:41:58.368Z,80.80
2022-12-16T04:44:43.617Z,80.80
2022-12-16T04:47:29.288Z,80.50
2022-12-16T04:50:14.354Z,80.30
2022-12-16T04:52:59.628Z,80.20
2022-12-16T04:55:44.786Z,79.50
2022-12-16T04:58:29.879Z,80.80
2022-12-16T05:01:15.478Z,81.60
2022-12-16T05:04:00.759Z,80.90
2022-12-16T05:06:46.020Z,81.10
2022-12-16T05:09:31.153Z,82.00
2022-12-16T05:12:16.658Z,82.50
2022-12-16T05:15:01.867Z,83.00
2022-12-16T05:17:46.894Z,83.50
2022-12-16T05:20:32.070Z,83.80
2022-12-16T05:23:17.290Z,83.80
2022-12-16T05:26:02.539Z,83.40
2022-12-16T05:28:47.580Z,82.90
2022-12-16T05:31:33.082Z,84.10
2022-12-16T05:34:38.087Z,82.90
2022-12-16T05:37:23.401Z,82.20
2022-12-16T05:40:13.042Z,82.10
2022-12-16T05:42:58.114Z,82.30
2022-12-16T05:45:43.088Z,83.00
2022-12-16T05:48:28.269Z,82.70
2022-12-16T05:51:13.441Z,83.00
2022-12-16T05:53:58.546Z,82.20
2022-12-16T05:56:43.696Z,82.20
2022-12-16T05:59:28.761Z,82.90
2022-12-16T06:02:14.389Z,82.70
2022-12-16T06:04:59.755Z,82.20
2022-12-16T06:07:45.088Z,82.20
2022-12-16T06:10:30.136Z,82.80
2022-12-16T06:13:15.177Z,82.80
2022-12-16T06:16:05.113Z,83.00
2022-12-16T06:18:53.590Z,83.80
2022-12-16T06:21:38.578Z,83.70
2022-12-16T06:24:23.772Z,83.30
2022-12-16T06:27:08.860Z,83.90
2022-12-16T06:29:54.014Z,84.30
2022-12-16T06:32:39.358Z,84.80
2022-12-16T06:35:24.400Z,83.40
2022-12-16T06:38:09.573Z,84.10
2022-12-16T06:40:55.145Z,84.50
2022-12-16T06:43:40.612Z,84.40
2022-12-16T06:46:25.732Z,86.10
2022-12-16T06:49:11.156Z,84.30
2022-12-16T06:51:56.380Z,83.70
2022-12-16T06:54:41.426Z,83.70
2022-12-16T06:57:26.687Z,84.90
2022-12-16T07:00:11.738Z,86.10
2022-12-16T07:02:57.126Z,86.10
2022-12-16T07:05:42.610Z,86.20
2022-12-16T07:08:27.677Z,86.10
2022-12-16T07:11:17.129Z,86.20
2022-12-16T07:14:03.137Z,86.20
2022-12-16T07:16:48.423Z,86.10
2022-12-16T07:19:33.949Z,86.20
2022-12-16T07:22:18.964Z,86.20
2022-12-16T07:25:04.075Z,85.00
2022-12-16T07:27:49.325Z,86.00
2022-12-16T07:30:34.717Z,85.50
2022-12-16T07:33:19.953Z,84.80
2022-12-16T07:36:05.147Z,84.50
2022-12-16T07:38:50.310Z,84.90
2022-12-16T07:41:35.377Z,84.80
2022-12-16T07:44:20.663Z,84.50
2022-12-16T07:47:05.686Z,85.10
2022-12-16T07:49:50.848Z,84.50
2022-12-16T07:52:36.053Z,84.30
2022-12-16T07:55:21.063Z,84.20
2022-12-16T07:58:09.274Z,84.20
2022-12-16T08:00:54.512Z,84.00
2022-12-16T08:03:41.651Z,84.30
2022-12-16T08:06:27.083Z,84.10
2022-12-16T08:09:12.090Z,83.50
2022-12-16T08:11:57.235Z,83.30
2022-12-16T08:14:42.376Z,84.10
2022-12-16T08:17:27.470Z,83.70
2022-12-16T08:20:12.600Z,83.10
2022-12-16T08:22:58.708Z,83.10
2022-12-16T08:25:43.926Z,91.40
2022-12-16T08:28:28.839Z,86.10
2022-12-16T08:31:14.251Z,84.70
2022-12-16T08:33:59.689Z,82.80
2022-12-16T08:36:45.013Z,81.00
2022-12-16T08:39:30.104Z,81.60
2022-12-16T08:42:15.170Z,82.30
2022-12-16T08:45:00.445Z,81.80
2022-12-16T08:47:45.597Z,81.20
2022-12-16T08:50:30.825Z,80.90
2022-12-16T08:53:15.975Z,80.80
2022-12-16T08:56:01.027Z,80.50
2022-12-16T08:58:46.157Z,80.00
2022-12-16T09:01:31.450Z,80.50
2022-12-16T09:04:17.042Z,80.70
2022-12-16T09:07:02.516Z,80.70
2022-12-16T09:09:49.295Z,80.70
2022-12-16T09:12:35.036Z,79.20
2022-12-16T09:15:20.187Z,78.90
2022-12-16T09:18:11.737Z,76.90
2022-12-16T09:20:56.809Z,78.80
2022-12-16T09:23:41.894Z,75.70
2022-12-16T09:26:27.524Z,74.80
2022-12-16T09:29:12.648Z,75.70
2022-12-16T09:31:57.950Z,77.60
2022-12-16T09:34:43.294Z,74.80
2022-12-16T09:37:28.825Z,75.10
2022-12-16T09:40:14.148Z,73.70
2022-12-16T09:43:24.124Z,73.60
2022-12-16T09:46:26.155Z,70.80
2022-12-16T09:49:30.329Z,70.80
2022-12-16T09:52:18.532Z,71.00
2022-12-16T09:55:04.621Z,68.30
2022-12-16T09:57:51.668Z,68.90
2022-12-16T10:00:39.863Z,67.80
2022-12-16T10:03:31.581Z,65.40
2022-12-16T10:06:24.669Z,66.50
2022-12-16T10:09:14.686Z,66.50
2022-12-16T10:12:06.139Z,66.90
2022-12-16T10:14:57.820Z,66.20
2022-12-16T10:17:44.191Z,66.10
2022-12-16T10:20:34.068Z,66.40
2022-12-16T10:23:38.209Z,65.10
2022-12-16T10:26:32.571Z,64.30
2022-12-16T10:29:35.459Z,62.40
2022-12-16T10:32:25.167Z,62.40
2022-12-16T10:35:26.943Z,62.50
2022-12-16T10:38:11.814Z,62.50
2022-12-16T10:41:05.320Z,62.50
2022-12-16T10:43:56.294Z,60.50
2022-12-16T10:46:43.471Z,61.20
2022-12-16T10:49:33.203Z,56.60
2022-12-16T10:52:18.396Z,57.40
2022-12-16T10:55:24.669Z,56.80
2022-12-16T10:58:09.786Z,55.60
2022-12-16T11:00:58.133Z,55.10
2022-12-16T11:03:44.795Z,53.90
2022-12-16T11:06:31.621Z,52.90
2022-12-16T11:09:32.531Z,52.90
2022-12-16T11:12:32.871Z,53.20
2022-12-16T11:15:29.249Z,54.00
2022-12-16T11:18:23.548Z,55.10
2022-12-16T11:21:23.964Z,54.50
2022-12-16T11:24:35.569Z,54.40
2022-12-16T11:27:22.157Z,54.20
2022-12-16T11:30:11.881Z,54.50
2022-12-16T11:32:58.441Z,55.40
2022-12-16T11:35:46.646Z,55.00
2022-12-16T11:38:37.162Z,54.30
2022-12-16T11:41:22.800Z,52.30
2022-12-16T11:44:09.507Z,52.90
2022-12-16T11:46:55.924Z,52.80
2022-12-16T11:49:45.141Z,52.90
2022-12-16T11:52:39.438Z,52.80
2022-12-16T11:56:04.928Z,52.80
2022-12-16T11:58:52.428Z,52.80
2022-12-16T12:01:48.937Z,52.70
2022-12-16T12:04:34.123Z,50.30
2022-12-16T12:07:26.233Z,52.30
2022-12-16T12:10:26.140Z,50.00
2022-12-16T12:13:17.471Z,52.30
2022-12-16T12:16:10.339Z,52.80
2022-12-16T12:19:09.104Z,52.80
2022-12-16T12:22:02.697Z,52.80
2022-12-16T12:24:58.980Z,52.80
2022-12-16T12:27:49.158Z,52.70
2022-12-16T12:30:38.395Z,52.80
2022-12-16T12:33:23.862Z,52.80
2022-12-16T12:36:27.878Z,52.80
2022-12-16T12:39:25.575Z,52.80
2022-12-16T12:42:15.771Z,52.70
2022-12-16T12:45:24.745Z,50.90
2022-12-16T12:48:24.813Z,52.30
2022-12-16T12:51:17.927Z,52.70
2022-12-16T12:54:08.553Z,49.80
2022-12-16T12:57:08.125Z,47.50
2022-12-16T12:59:55.935Z,46.80
2022-12-16T13:02:45.924Z,44.00
2022-12-16T13:05:32.386Z,43.10
2022-12-16T13:08:36.510Z,42.90
2022-12-16T13:11:35.219Z,42.10
2022-12-16T13:14:21.231Z,42.10
2022-12-16T13:17:12.721Z,43.40
2022-12-16T13:19:59.416Z,45.20
2022-12-16T13:22:54.506Z,44.80
2022-12-16T13:25:48.927Z,44.10
2022-12-16T13:28:43.427Z,45.20
2022-12-16T13:31:28.927Z,42.20
2022-12-16T13:34:15.533Z,42.20
2022-12-16T13:37:01.760Z,42.10
2022-12-16T13:39:47.673Z,42.10
2022-12-16T13:42:51.834Z,42.30
2022-12-16T13:46:03.574Z,41.40
2022-12-16T13:48:55.064Z,41.50
2022-12-16T13:51:55.460Z,42.20
2022-12-16T13:54:50.073Z,42.20
2022-12-16T13:57:36.679Z,42.10
2022-12-16T14:00:23.140Z,40.30
2022-12-16T14:03:10.747Z,38.50
2022-12-16T14:06:00.642Z,42.20
2022-12-16T14:08:48.288Z,41.00
2022-12-16T14:11:37.427Z,40.00
2022-12-16T14:14:40.721Z,40.90
2022-12-16T14:17:30.898Z,39.30
2022-12-16T14:20:32.003Z,39.30
2022-12-16T14:23:47.204Z,39.40
2022-12-16T14:26:29.186Z,39.60
2022-12-16T14:29:14.301Z,39.80
2022-12-16T14:32:00.916Z,38.50
2022-12-16T14:34:47.467Z,39.40
2022-12-16T14:37:33.808Z,39.70
2022-12-16T14:40:20.813Z,39.40
2022-12-16T14:43:11.298Z,38.60
2022-12-16T14:45:58.034Z,39.30
2022-12-16T14:48:57.020Z,42.00
2022-12-16T14:51:43.503Z,42.20
2022-12-16T14:54:35.742Z,41.60
2022-12-16T14:57:20.885Z,42.10
2022-12-16T15:00:06.074Z,42.10
2022-12-16T15:02:59.025Z,42.10
2022-12-16T15:05:48.914Z,42.10
2022-12-16T15:08:34.318Z,42.10
2022-12-16T15:11:19.480Z,42.20
2022-12-16T15:14:13.674Z,42.10
2022-12-16T15:16:58.867Z,42.10
2022-12-16T15:19:44.070Z,42.10
2022-12-16T15:22:32.012Z,42.10
2022-12-16T15:25:17.309Z,42.20
2022-12-16T15:28:02.544Z,42.10
2022-12-16T15:30:58.606Z,42.50
2022-12-16T15:33:48.195Z,43.30
2022-12-16T15:36:52.982Z,44.00
2022-12-16T15:39:38.090Z,44.20
2022-12-16T15:42:23.733Z,43.90
2022-12-16T15:45:09.840Z,42.00
2022-12-16T15:47:56.557Z,44.50
2022-12-16T15:50:46.468Z,43.70
2022-12-16T15:53:51.092Z,44.30
2022-12-16T15:56:51.325Z,44.80
2022-12-16T15:59:47.588Z,45.80
2022-12-16T16:02:34.567Z,44.20
2022-12-16T16:05:19.981Z,42.10
2022-12-16T16:08:05.631Z,42.10
2022-12-16T16:10:51.618Z,43.80
2022-12-16T16:13:36.993Z,43.40
2022-12-16T16:16:22.258Z,44.10
2022-12-16T16:19:07.716Z,45.40
2022-12-16T16:21:52.946Z,44.10
2022-12-16T16:24:38.340Z,44.80
2022-12-16T16:27:26.990Z,45.00
2022-12-16T16:30:12.096Z,43.10
2022-12-16T16:32:57.260Z,45.50
2022-12-16T16:35:42.218Z,43.70
2022-12-16T16:38:30.354Z,43.10
2022-12-16T16:41:15.473Z,42.00
2022-12-16T16:44:00.604Z,41.90
2022-12-16T16:46:45.861Z,42.00
2022-12-16T16:49:35.653Z,40.70
2022-12-16T16:52:20.700Z,39.60
2022-12-16T16:55:05.742Z,39.30
2022-12-16T16:57:52.834Z,40.60
2022-12-16T17:00:38.257Z,40.90
2022-12-16T17:03:23.996Z,39.50
2022-12-16T17:06:09.264Z,40.30
2022-12-16T17:08:54.415Z,40.70
2022-12-16T17:11:40.632Z,38.60
2022-12-16T17:14:29.666Z,37.40
2022-12-16T17:17:14.826Z,38.20
2022-12-16T17:20:00.091Z,38.00
2022-12-16T17:22:45.475Z,35.40
2022-12-16T17:25:31.275Z,35.70
2022-12-16T17:28:16.346Z,37.00
2022-12-16T17:31:01.616Z,37.30
2022-12-16T17:33:46.756Z,35.60
2022-12-16T17:36:32.952Z,34.40
2022-12-16T17:39:18.031Z,32.80
2022-12-16T17:42:03.206Z,33.20
2022-12-16T17:44:48.363Z,32.70
2022-12-16T17:47:33.371Z,32.80
2022-12-16T17:50:18.475Z,32.40
2022-12-16T17:53:03.644Z,30.80
2022-12-16T17:55:48.834Z,31.00
2022-12-16T17:58:34.178Z,30.50
2022-12-16T18:01:22.949Z,30.40
2022-12-16T18:04:08.654Z,30.40
2022-12-16T18:06:54.047Z,31.10
2022-12-16T18:09:39.708Z,30.40
2022-12-16T18:12:29.214Z,30.60
2022-12-16T18:15:14.411Z,30.20
2022-12-16T18:17:59.398Z,30.70
2022-12-16T18:20:44.607Z,30.20
2022-12-16T18:23:29.870Z,30.20
2022-12-16T18:26:29.999Z,30.20
2022-12-16T18:29:15.100Z,30.10
2022-12-16T18:32:00.555Z,30.10
2022-12-16T18:34:46.039Z,30.00
2022-12-16T18:37:31.726Z,30.00
2022-12-16T18:40:17.227Z,30.00
2022-12-16T18:43:02.190Z,32.10
2022-12-16T18:45:47.324Z,32.60
2022-12-16T18:48:46.736Z,31.80
2022-12-16T18:51:31.864Z,30.80
2022-12-16T18:54:17.020Z,31.00
2022-12-16T18:57:02.074Z,32.60
2022-12-16T18:59:47.235Z,32.90
2022-12-16T19:02:32.618Z,31.70
2022-12-16T19:05:18.017Z,32.00
2022-12-16T19:08:03.221Z,32.70
2022-12-16T19:10:48.311Z,31.90
2022-12-16T19:13:34.093Z,31.90
2022-12-16T19:16:19.235Z,33.20
2022-12-16T19:19:05.004Z,32.20
2022-12-16T19:21:52.272Z,33.10
2022-12-16T19:24:42.464Z,32.50
2022-12-16T19:27:28.008Z,32.10
2022-12-16T19:30:13.430Z,31.20
2022-12-16T19:32:58.647Z,29.70
2022-12-16T19:35:43.859Z,29.70
2022-12-16T19:38:32.744Z,31.30
2022-12-16T19:41:17.730Z,31.50
2022-12-16T19:47:09.426Z,32.90
2022-12-16T19:49:54.812Z,32.70
2022-12-16T19:52:41.315Z,31.80
2022-12-16T19:55:26.934Z,30.90
2022-12-16T19:58:12.595Z,29.60
2022-12-16T20:00:58.086Z,29.50
2022-12-16T20:03:43.411Z,30.70
2022-12-16T20:06:28.864Z,31.80
2022-12-16T20:09:15.090Z,32.80
2022-12-16T20:12:00.714Z,33.60
2022-12-16T20:14:46.396Z,36.40
2022-12-16T20:17:31.463Z,36.10
2022-12-16T20:20:16.709Z,35.10
2022-12-16T20:23:02.034Z,35.20
2022-12-16T20:25:47.262Z,37.00
2022-12-16T20:28:32.638Z,37.00
2022-12-16T20:31:18.431Z,37.00
2022-12-16T20:34:03.625Z,36.40
2022-12-16T20:36:48.612Z,37.40
2022-12-16T20:39:33.800Z,36.80
2022-12-16T20:42:18.871Z,38.20
2022-12-16T20:45:03.844Z,38.00
2022-12-16T20:47:48.923Z,38.70
2022-12-16T20:50:34.162Z,38.90
2022-12-16T20:53:19.411Z,40.10
2022-12-16T20:56:04.472Z,40.10
2022-12-16T20:58:49.684Z,39.70
2022-12-16T21:01:35.141Z,40.20
2022-12-16T21:04:20.699Z,39.70
2022-12-16T21:07:05.886Z,40.20
2022-12-16T21:09:51.834Z,40.20
2022-12-16T21:12:38.729Z,40.20
2022-12-16T21:15:24.499Z,40.20
2022-12-16T21:18:09.568Z,40.30
2022-12-16T21:24:00.490Z,40.30
2022-12-16T21:26:45.549Z,40.40
2022-12-16T21:29:30.694Z,38.60
2022-12-16T21:32:16.083Z,38.20
2022-12-16T21:35:01.346Z,40.90
2022-12-16T21:38:03.275Z,40.30
2022-12-16T21:40:48.617Z,40.30
2022-12-16T21:43:34.339Z,40.30
2022-12-16T21:46:19.435Z,40.30
2022-12-16T21:49:04.765Z,40.30
2022-12-16T21:51:49.874Z,40.40
2022-12-16T21:54:35.187Z,40.30
2022-12-16T21:57:20.394Z,40.10
2022-12-16T22:00:05.735Z,40.30
2022-12-16T22:02:50.798Z,38.80
2022-12-16T22:05:37.080Z,40.30
2022-12-16T22:08:26.313Z,40.90
2022-12-16T22:11:11.508Z,40.30
2022-12-16T22:13:56.472Z,40.30
2022-12-16T22:16:58.442Z,39.60
2022-12-16T22:19:43.778Z,40.10
2022-12-16T22:22:33.261Z,40.30
2022-12-16T22:25:18.503Z,40.30
2022-12-16T22:28:03.597Z,38.80
2022-12-16T22:30:48.933Z,40.30
2022-12-16T22:33:34.172Z,38.80
2022-12-16T22:36:20.319Z,39.10
2022-12-16T22:39:05.611Z,40.30
2022-12-16T22:41:53.079Z,40.20
2022-12-16T22:44:38.809Z,40.20
2022-12-16T22:47:23.954Z,40.30
2022-12-16T22:50:09.818Z,40.20
2022-12-16T22:52:55.210Z,40.20
2022-12-16T22:55:40.919Z,40.20
2022-12-16T22:58:26.987Z,40.10
2022-12-16T23:01:12.319Z,40.10
2022-12-16T23:03:57.408Z,39.10
2022-12-16T23:06:42.455Z,38.80
2022-12-16T23:09:28.236Z,38.60
2022-12-16T23:12:13.840Z,38.20
2022-12-16T23:14:59.012Z,37.10
2022-12-16T23:17:44.038Z,37.10
2022-12-16T23:20:29.252Z,36.40
2022-12-16T23:23:14.836Z,37.10
2022-12-16T23:25:59.912Z,36.90
2022-12-16T23:28:45.148Z,37.20
2022-12-16T23:31:30.634Z,36.60
2022-12-16T23:32:29.735Z,32.10
2022-12-16T23:32:30.550Z,40.30
2022-12-16T23:34:16.128Z,35.90
2022-12-16T23:37:01.138Z,36.50
2022-12-16T23:39:46.319Z,36.70
2022-12-16T23:42:31.399Z,37.20
2022-12-16T23:45:16.533Z,37.90
2022-12-16T23:48:01.822Z,36.90
2022-12-16T23:50:47.258Z,35.90
2022-12-16T23:53:32.627Z,36.60
2022-12-16T23:56:18.955Z,37.00
2022-12-16T23:59:07.060Z,37.40
